Time;durP1;ratioP1;P1;durP2;ratioP2;P2;SDS_P1;SDS_P2;PMS_P1;PMS_P2;Temp;Humidity;BMP_temperature;BMP_pressure;BME280_temperature;BME280_humidity;BME280_pressure;Samples;Min_cycle;Max_cycle;Signal;HPM_P1;HPM_P2
2024/01/07 00:00:31;;;;;;;;;;;;;;;9.27;90.08;96587.56;4349405;33;19988;-81
2024/01/07 00:02:57;;;;;;;;;;;;;;;8.88;92.61;96584.81;4349293;33;19971;-81
2024/01/07 00:05:24;;;;;;;;;;;;;;;8.75;93.47;96589.03;4349793;33;20001;-81
2024/01/07 00:07:51;;;;;;;;;;;;;;;8.77;94.58;96579.47;4351463;33;20311;-81
2024/01/07 00:10:18;;;;;;;;;;;;;;;9.06;92.33;96580.31;4349880;33;19995;-81
2024/01/07 00:12:45;;;;;;;;;;;;;;;9.14;91.73;96586.63;4351491;33;20436;-81
2024/01/07 00:15:11;;;;;;;;;;;;;;;9.51;89.87;96582.66;4351420;32;19993;-81
2024/01/07 00:17:38;;;;;;;;;;;;;;;9.57;89.75;96581.47;4351069;33;19991;-81
2024/01/07 00:20:06;;;;;;;;;;;;;;;8.87;92.27;96588.28;4351289;33;19971;-81
2024/01/07 00:22:33;;;;;;;;;;;;;;;9.18;91.52;96584.72;4351377;33;20373;-81
2024/01/07 00:24:59;;;;;;;;;;;;;;;9.60;89.41;96588.19;4351004;33;20009;-81
2024/01/07 00:27:26;;;;;;;;;;;;;;;10.22;86.37;96586.00;4351394;32;20322;-81
2024/01/07 00:29:53;;;;;;;;;;;;;;;9.79;86.86;96578.37;4351028;33;19989;-81
2024/01/07 00:32:19;;;;;;;;;;;;;;;10.27;85.26;96577.03;4351310;33;19979;-81
2024/01/07 00:34:46;;;;;;;;;;;;;;;10.25;83.96;96572.91;4351310;33;20042;-81
2024/01/07 00:37:14;;;;;;;;;;;;;;;10.09;84.96;96578.16;4350726;33;20381;-81
2024/01/07 00:39:42;;;;;;;;;;;;;;;9.89;86.61;96574.31;4350220;33;19999;-81
2024/01/07 00:42:08;;;;;;;;;;;;;;;9.70;88.07;96569.47;4351267;33;19993;-81
2024/01/07 00:44:36;;;;;;;;;;;;;;;10.43;84.43;96571.72;4350823;33;20023;-81
2024/01/07 00:47:03;;;;;;;;;;;;;;;10.46;84.29;96571.50;4350957;33;20250;-81
2024/01/07 00:49:31;;;;;;;;;;;;;;;10.78;81.27;96568.53;4351292;33;19971;-81
2024/01/07 00:51:57;;;;;;;;;;;;;;;10.29;83.69;96572.59;4350852;33;19966;-81
2024/01/07 00:54:24;;;;;;;;;;;;;;;10.76;82.53;96570.41;4351139;33;19982;-81
2024/01/07 00:56:51;;;;;;;;;;;;;;;10.01;85.68;96577.84;4350948;33;20055;-81
2024/01/07 00:59:17;;;;;;;;;;;;;;;10.77;82.08;96578.03;4350876;33;19975;-81
2024/01/07 01:01:44;;;;;;;;;;;;;;;10.22;84.65;96584.25;4351115;33;20029;-81
2024/01/07 01:04:11;;;;;;;;;;;;;;;9.94;85.71;96579.16;4351121;33;20356;-81
2024/01/07 01:06:38;;;;;;;;;;;;;;;9.82;86.59;96585.91;4350630;33;19967;-81
2024/01/07 01:09:04;;;;;;;;;;;;;;;10.33;84.71;96575.81;4351063;32;20034;-81
2024/01/07 01:11:31;;;;;;;;;;;;;;;10.20;84.56;96574.91;4351022;33;19967;-81
2024/01/07 01:13:58;;;;;;;;;;;;;;;9.84;86.38;96579.72;4350802;32;19995;-81
2024/01/07 01:16:24;;;;;;;;;;;;;;;9.50;89.55;96581.00;4350562;33;19997;-81
2024/01/07 01:18:51;;;;;;;;;;;;;;;9.77;86.09;96581.03;4350342;33;20341;-81
2024/01/07 01:21:18;;;;;;;;;;;;;;;10.09;87.05;96576.41;4350870;33;20006;-81
2024/01/07 01:23:46;;;;;;;;;;;;;;;10.23;86.09;96573.00;4350994;33;19972;-81
2024/01/07 01:26:12;;;;;;;;;;;;;;;10.72;82.75;96578.31;4350147;33;19983;-81
2024/01/07 01:28:39;;;;;;;;;;;;;;;11.41;79.02;96576.25;4351213;33;19978;-81
2024/01/07 01:31:06;;;;;;;;;;;;;;;10.49;82.52;96573.03;4350845;33;19967;-81
2024/01/07 01:33:33;;;;;;;;;;;;;;;10.78;81.90;96571.94;4350472;33;20303;-81
2024/01/07 01:36:03;;;;;;;;;;;;;;;9.98;84.62;96572.88;4350822;33;19983;-81
2024/01/07 01:38:30;;;;;;;;;;;;;;;9.97;86.56;96569.47;4349800;33;19979;-81
2024/01/07 01:40:57;;;;;;;;;;;;;;;9.74;88.33;96570.09;4350476;33;19987;-81
2024/01/07 01:43:26;;;;;;;;;;;;;;;9.22;89.82;96571.56;4350941;32;19975;-81
2024/01/07 01:45:54;;;;;;;;;;;;;;;9.53;89.15;96564.53;4350763;33;20464;-81
2024/01/07 01:48:21;;;;;;;;;;;;;;;9.10;91.74;96558.63;4350539;33;19990;-81
2024/01/07 01:50:48;;;;;;;;;;;;;;;9.27;91.77;96561.84;4350889;32;19986;-81
2024/01/07 01:53:15;;;;;;;;;;;;;;;9.18;92.37;96559.81;4349766;33;20378;-81
2024/01/07 01:55:42;;;;;;;;;;;;;;;8.95;93.22;96562.94;4350301;33;20025;-81
2024/01/07 01:58:09;;;;;;;;;;;;;;;8.53;95.97;96558.59;4350690;33;19971;-81
2024/01/07 02:00:36;;;;;;;;;;;;;;;8.66;94.38;96565.50;4349538;33;19962;-81
2024/01/07 02:03:03;;;;;;;;;;;;;;;8.58;95.44;96575.38;4350524;33;19982;-81
2024/01/07 02:05:29;;;;;;;;;;;;;;;9.17;92.13;96567.62;4350603;33;20050;-81
2024/01/07 02:07:56;;;;;;;;;;;;;;;9.32;91.58;96561.53;4350477;33;19985;-81
2024/01/07 02:10:23;;;;;;;;;;;;;;;8.49;96.72;96565.63;4349542;33;19981;-81
2024/01/07 02:12:49;;;;;;;;;;;;;;;9.20;92.85;96565.69;4350704;32;20248;-81
2024/01/07 02:15:16;;;;;;;;;;;;;;;8.54;95.05;96557.69;4350366;33;19979;-81
2024/01/07 02:17:43;;;;;;;;;;;;;;;9.02;93.40;96558.25;4350656;33;20345;-81
2024/01/07 02:20:10;;;;;;;;;;;;;;;9.38;90.67;96556.03;4349343;33;19982;-81
2024/01/07 02:22:37;;;;;;;;;;;;;;;10.57;84.26;96557.91;4350208;32;19986;-81
2024/01/07 02:25:03;;;;;;;;;;;;;;;10.06;85.60;96555.19;4350382;33;19999;-81
2024/01/07 02:27:30;;;;;;;;;;;;;;;10.04;86.63;96555.28;4350597;33;20018;-81
2024/01/07 02:29:57;;;;;;;;;;;;;;;9.62;87.68;96553.69;4350128;33;19966;-81
2024/01/07 02:32:23;;;;;;;;;;;;;;;9.62;86.78;96560.56;4350630;33;20080;-82
2024/01/07 02:34:50;;;;;;;;;;;;;;;9.50;87.40;96552.69;4350508;33;20028;-81
2024/01/07 02:37:17;;;;;;;;;;;;;;;8.98;91.62;96555.03;4350030;33;20025;-81
2024/01/07 02:39:44;;;;;;;;;;;;;;;9.30;88.53;96567.72;4350580;33;19991;-81
2024/01/07 02:42:21;;;;;;;;;;;;;;;9.12;90.55;96561.94;4350422;32;20034;-81
2024/01/07 02:44:48;;;;;;;;;;;;;;;8.83;90.48;96551.66;4350105;33;20046;-81
2024/01/07 02:47:15;;;;;;;;;;;;;;;7.99;96.20;96548.78;4350116;32;19989;-81
2024/01/07 02:49:41;;;;;;;;;;;;;;;7.58;99.02;96542.53;4350537;33;20331;-81
2024/01/07 02:52:08;;;;;;;;;;;;;;;8.15;95.76;96548.72;4350123;33;20035;-81
2024/01/07 02:54:35;;;;;;;;;;;;;;;8.31;95.98;96549.53;4350391;33;20314;-81
2024/01/07 02:57:02;;;;;;;;;;;;;;;8.24;94.72;96543.06;4349863;33;20029;-81
2024/01/07 02:59:29;;;;;;;;;;;;;;;8.88;91.28;96541.91;4350433;33;20043;-81
2024/01/07 03:01:56;;;;;;;;;;;;;;;8.29;93.89;96535.09;4350358;33;20006;-81
2024/01/07 03:04:23;;;;;;;;;;;;;;;9.15;88.97;96538.59;4349957;33;19978;-81
2024/01/07 03:06:49;;;;;;;;;;;;;;;9.23;87.07;96534.63;4350045;33;19970;-81
2024/01/07 03:09:16;;;;;;;;;;;;;;;8.76;88.41;96534.09;4350307;33;19971;-81
2024/01/07 03:11:43;;;;;;;;;;;;;;;9.82;84.22;96531.81;4349877;32;19970;-81
2024/01/07 03:14:09;;;;;;;;;;;;;;;9.33;84.85;96532.31;4350303;32;19983;-81
2024/01/07 03:16:36;;;;;;;;;;;;;;;8.17;91.82;96535.78;4349996;33;19985;-81
2024/01/07 03:19:04;;;;;;;;;;;;;;;8.18;90.16;96527.16;4349858;33;19977;-81
2024/01/07 03:21:31;;;;;;;;;;;;;;;8.87;87.36;96532.53;4349990;32;20429;-81
2024/01/07 03:23:57;;;;;;;;;;;;;;;8.68;87.53;96537.94;4350142;32;19987;-81
2024/01/07 03:26:24;;;;;;;;;;;;;;;8.64;88.06;96540.78;4349289;33;19967;-81
2024/01/07 03:28:51;;;;;;;;;;;;;;;9.08;85.07;96537.31;4350152;33;19971;-81
2024/01/07 03:31:18;;;;;;;;;;;;;;;8.95;87.02;96544.94;4349999;33;20307;-81
2024/01/07 03:33:45;;;;;;;;;;;;;;;8.19;87.91;96539.09;4348571;33;20005;-82
2024/01/07 03:36:13;;;;;;;;;;;;;;;8.94;86.00;96533.84;4349659;33;20448;-81
2024/01/07 03:38:40;;;;;;;;;;;;;;;9.06;83.74;96532.25;4350042;33;20280;-81
2024/01/07 03:41:06;;;;;;;;;;;;;;;8.79;86.50;96537.31;4349314;33;19995;-81
2024/01/07 03:43:33;;;;;;;;;;;;;;;8.73;86.57;96537.69;4351637;33;20374;-82
2024/01/07 03:46:00;;;;;;;;;;;;;;;8.32;87.76;96538.31;4351398;32;19983;-81
2024/01/07 03:48:27;;;;;;;;;;;;;;;8.66;85.53;96541.53;4351429;33;19989;-81
2024/01/07 03:50:54;;;;;;;;;;;;;;;9.19;82.14;96534.91;4351655;33;19993;-81
2024/01/07 03:53:21;;;;;;;;;;;;;;;8.22;87.45;96538.94;4351345;33;20009;-81
2024/01/07 03:55:47;;;;;;;;;;;;;;;7.31;93.22;96530.28;4351350;33;20037;-81
2024/01/07 03:58:14;;;;;;;;;;;;;;;7.49;92.49;96533.59;4351605;33;19979;-81
2024/01/07 04:00:41;;;;;;;;;;;;;;;7.34;93.41;96535.25;4351112;33;20310;-81
2024/01/07 04:03:08;;;;;;;;;;;;;;;7.06;95.32;96538.47;4351571;32;19995;-81
2024/01/07 04:05:34;;;;;;;;;;;;;;;6.71;97.27;96544.59;4350204;33;20429;-81
2024/01/07 04:08:01;;;;;;;;;;;;;;;7.63;92.53;96538.78;4351259;33;19997;-81
2024/01/07 04:10:28;;;;;;;;;;;;;;;7.29;93.84;96544.09;4351512;33;20359;-81
2024/01/07 04:12:55;;;;;;;;;;;;;;;7.35;91.91;96551.50;4351492;33;20042;-81
2024/01/07 04:15:21;;;;;;;;;;;;;;;7.44;91.70;96544.12;4351045;33;19979;-81
2024/01/07 04:17:48;;;;;;;;;;;;;;;7.11;93.84;96544.16;4351607;33;20042;-81
2024/01/07 04:20:15;;;;;;;;;;;;;;;7.17;94.25;96546.41;4351407;33;20010;-81
2024/01/07 04:22:42;;;;;;;;;;;;;;;6.86;95.99;96547.19;4351037;33;19983;-82
2024/01/07 04:25:10;;;;;;;;;;;;;;;5.87;100.00;96546.16;4350903;33;19995;-81
2024/01/07 04:27:37;;;;;;;;;;;;;;;6.39;99.55;96544.50;4350218;33;19963;-81
2024/01/07 04:30:05;;;;;;;;;;;;;;;6.34;98.90;96546.44;4350995;33;19983;-81
2024/01/07 04:32:32;;;;;;;;;;;;;;;6.85;97.51;96550.66;4351373;33;19979;-81
2024/01/07 04:34:59;;;;;;;;;;;;;;;6.20;99.91;96548.87;4350097;33;20392;-81
2024/01/07 04:37:26;;;;;;;;;;;;;;;6.90;96.70;96555.53;4350934;33;19971;-81
2024/01/07 04:39:52;;;;;;;;;;;;;;;6.41;98.31;96559.78;4351242;33;20042;-82
2024/01/07 04:42:19;;;;;;;;;;;;;;;6.02;99.50;96555.69;4350855;33;20489;-81
2024/01/07 04:44:46;;;;;;;;;;;;;;;5.93;100.00;96562.09;4351308;33;20034;-81
2024/01/07 04:47:28;;;;;;;;;;;;;;;5.90;100.00;96564.78;4350940;33;19975;-81
2024/01/07 04:49:55;;;;;;;;;;;;;;;6.23;98.75;96567.47;4350856;33;19997;-81
2024/01/07 04:52:22;;;;;;;;;;;;;;;5.96;99.64;96563.69;4350300;33;20038;-81
2024/01/07 04:54:52;;;;;;;;;;;;;;;6.89;95.25;96562.41;4351220;32;19974;-81
2024/01/07 04:57:19;;;;;;;;;;;;;;;7.05;93.47;96569.31;4349540;33;19967;-81
2024/01/07 04:59:46;;;;;;;;;;;;;;;5.86;99.52;96567.56;4350041;33;20046;-81
2024/01/07 05:02:13;;;;;;;;;;;;;;;7.22;93.01;96567.50;4351074;33;19974;-81
2024/01/07 05:04:40;;;;;;;;;;;;;;;6.93;93.34;96575.91;4350823;32;20454;-81
2024/01/07 05:07:06;;;;;;;;;;;;;;;6.14;97.72;96570.47;4350797;33;20014;-81
2024/01/07 05:09:33;;;;;;;;;;;;;;;6.24;98.70;96573.41;4351272;33;19994;-81
2024/01/07 05:12:00;;;;;;;;;;;;;;;7.02;93.70;96580.56;4350743;33;19995;-81
2024/01/07 05:14:27;;;;;;;;;;;;;;;6.90;93.08;96581.19;4350950;33;20334;-81
2024/01/07 05:16:54;;;;;;;;;;;;;;;7.14;92.58;96574.81;4350853;32;20318;-81
2024/01/07 05:19:21;;;;;;;;;;;;;;;7.12;90.60;96574.03;4350798;33;20337;-81
2024/01/07 05:21:48;;;;;;;;;;;;;;;7.41;89.44;96572.50;4351017;33;19990;-81
2024/01/07 05:24:15;;;;;;;;;;;;;;;7.97;84.60;96578.84;4349836;33;20417;-81
2024/01/07 05:26:42;;;;;;;;;;;;;;;7.76;85.50;96574.88;4350370;32;20021;-81
2024/01/07 05:29:09;;;;;;;;;;;;;;;7.37;87.53;96580.44;4350921;33;20031;-81
2024/01/07 05:31:36;;;;;;;;;;;;;;;7.35;87.96;96577.97;4350697;32;20034;-81
2024/01/07 05:34:03;;;;;;;;;;;;;;;7.56;85.59;96580.31;4349785;33;20006;-81
2024/01/07 05:36:30;;;;;;;;;;;;;;;7.51;85.65;96585.66;4350654;33;19998;-81
2024/01/07 05:38:57;;;;;;;;;;;;;;;8.15;83.28;96591.56;4350601;32;19975;-81
2024/01/07 05:41:23;;;;;;;;;;;;;;;8.21;81.22;96592.06;4350847;32;19983;-81
2024/01/07 05:43:51;;;;;;;;;;;;;;;8.19;81.60;96596.47;4350913;33;20018;-81
2024/01/07 05:46:17;;;;;;;;;;;;;;;8.04;81.21;96598.12;4350389;33;19967;-81
2024/01/07 05:48:45;;;;;;;;;;;;;;;7.30;85.59;96597.06;4350956;33;19975;-81
2024/01/07 05:51:12;;;;;;;;;;;;;;;7.52;82.61;96593.28;4350871;33;20311;-81
2024/01/07 05:53:39;;;;;;;;;;;;;;;6.94;86.02;96595.50;4350471;33;20006;-81
2024/01/07 05:56:06;;;;;;;;;;;;;;;8.20;79.74;96594.72;4350552;33;19981;-81
2024/01/07 05:58:33;;;;;;;;;;;;;;;7.47;80.92;96597.84;4350919;33;19987;-81
2024/01/07 06:01:00;;;;;;;;;;;;;;;7.47;83.11;96608.09;4350406;33;19975;-81
2024/01/07 06:03:27;;;;;;;;;;;;;;;7.34;82.80;96603.72;4349174;33;20014;-81
2024/01/07 06:05:54;;;;;;;;;;;;;;;7.59;82.35;96600.66;4350545;33;19962;-82
2024/01/07 06:08:20;;;;;;;;;;;;;;;7.17;83.55;96596.88;4350503;33;19982;-81
2024/01/07 06:10:47;;;;;;;;;;;;;;;6.17;89.90;96607.88;4350670;33;19987;-81
2024/01/07 06:13:14;;;;;;;;;;;;;;;7.09;85.74;96616.97;4350710;33;19984;-81
2024/01/07 06:15:40;;;;;;;;;;;;;;;7.05;84.96;96611.19;4350120;32;19971;-81
2024/01/07 06:18:07;;;;;;;;;;;;;;;7.02;84.54;96620.75;4350815;33;19986;-81
2024/01/07 06:20:34;;;;;;;;;;;;;;;6.78;85.02;96621.09;4350391;33;19982;-81
2024/01/07 06:23:01;;;;;;;;;;;;;;;6.22;88.05;96619.59;4350609;33;20002;-81
2024/01/07 06:25:27;;;;;;;;;;;;;;;5.82;88.55;96633.41;4350342;33;19986;-81
2024/01/07 06:27:54;;;;;;;;;;;;;;;6.62;86.87;96636.41;4345411;32;150326;-81
2024/01/07 06:30:21;;;;;;;;;;;;;;;5.90;87.53;96633.06;4350631;33;20088;-81
2024/01/07 06:32:48;;;;;;;;;;;;;;;6.13;87.98;96627.72;4350586;33;19991;-81
2024/01/07 06:35:15;;;;;;;;;;;;;;;5.28;92.12;96641.84;4350188;33;19967;-81
2024/01/07 06:37:42;;;;;;;;;;;;;;;5.74;90.66;96638.03;4350334;33;19978;-81
2024/01/07 06:40:11;;;;;;;;;;;;;;;5.93;88.76;96631.19;4350490;32;20256;-81
2024/01/07 06:42:38;;;;;;;;;;;;;;;5.33;91.30;96627.97;4350088;33;19970;-81
2024/01/07 06:45:05;;;;;;;;;;;;;;;5.48;91.02;96632.37;4350390;33;19967;-81
2024/01/07 06:47:31;;;;;;;;;;;;;;;4.78;93.06;96626.94;4350402;33;19991;-81
2024/01/07 06:49:58;;;;;;;;;;;;;;;5.38;92.03;96630.31;4350157;33;19994;-81
2024/01/07 06:52:25;;;;;;;;;;;;;;;4.99;92.90;96630.31;4350428;33;19985;-81
2024/01/07 06:54:51;;;;;;;;;;;;;;;5.04;93.16;96629.22;4350438;33;20050;-81
2024/01/07 06:57:18;;;;;;;;;;;;;;;5.34;91.48;96639.84;4348763;33;20358;-81
2024/01/07 06:59:45;;;;;;;;;;;;;;;5.39;91.02;96637.06;4349286;33;20006;-81
2024/01/07 07:02:11;;;;;;;;;;;;;;;4.49;95.18;96631.56;4350235;33;19988;-81
2024/01/07 07:04:38;;;;;;;;;;;;;;;4.71;94.52;96635.78;4349988;33;20014;-81
2024/01/07 07:07:05;;;;;;;;;;;;;;;4.66;94.86;96635.97;4350074;33;20030;-81
2024/01/07 07:09:33;;;;;;;;;;;;;;;4.19;98.98;96638.72;4350321;33;19997;-81
2024/01/07 07:11:59;;;;;;;;;;;;;;;4.75;95.05;96652.63;4349957;33;19979;-81
2024/01/07 07:14:26;;;;;;;;;;;;;;;4.58;96.62;96641.41;4349867;33;20331;-81
2024/01/07 07:16:53;;;;;;;;;;;;;;;4.51;96.73;96652.75;4349077;33;20434;-81
2024/01/07 07:19:19;;;;;;;;;;;;;;;4.11;97.40;96648.41;4350254;33;20352;-81
2024/01/07 07:21:46;;;;;;;;;;;;;;;4.53;96.85;96656.06;4350276;32;19987;-81
2024/01/07 07:24:13;;;;;;;;;;;;;;;4.44;96.17;96646.22;4349652;33;20378;-81
2024/01/07 07:26:40;;;;;;;;;;;;;;;4.76;94.56;96667.06;4349616;33;19979;-80
2024/01/07 07:29:09;;;;;;;;;;;;;;;4.28;96.03;96661.34;4350146;33;20037;-80
2024/01/07 07:31:36;;;;;;;;;;;;;;;4.98;92.80;96662.72;4349670;33;19967;-81
2024/01/07 07:34:03;;;;;;;;;;;;;;;4.50;95.39;96661.31;4349994;33;19966;-80
2024/01/07 07:36:31;;;;;;;;;;;;;;;4.52;94.85;96666.34;4349767;33;20323;-81
2024/01/07 07:38:57;;;;;;;;;;;;;;;4.07;98.01;96673.22;4349725;33;19979;-81
2024/01/07 07:41:24;;;;;;;;;;;;;;;4.23;98.33;96670.06;4349748;33;19967;-81
2024/01/07 07:43:51;;;;;;;;;;;;;;;3.99;98.14;96674.41;4349800;33;19990;-81
2024/01/07 07:46:17;;;;;;;;;;;;;;;4.19;97.58;96671.91;4349276;33;20319;-81
2024/01/07 07:48:44;;;;;;;;;;;;;;;3.99;97.56;96675.25;4349870;33;19987;-81
2024/01/07 07:51:11;;;;;;;;;;;;;;;3.93;98.74;96683.13;4349797;33;20034;-80
2024/01/07 07:53:39;;;;;;;;;;;;;;;3.37;100.00;96685.22;4349307;33;19979;-80
2024/01/07 07:56:06;;;;;;;;;;;;;;;4.24;97.08;96689.59;4349600;33;20311;-81
2024/01/07 07:58:32;;;;;;;;;;;;;;;3.84;98.99;96690.31;4348455;33;20050;-81
2024/01/07 08:00:59;;;;;;;;;;;;;;;3.90;98.99;96690.91;4349388;33;20342;-80
2024/01/07 08:03:26;;;;;;;;;;;;;;;4.03;98.20;96691.25;4349483;32;20216;-80
2024/01/07 08:05:53;;;;;;;;;;;;;;;4.27;96.05;96699.72;4349013;32;20254;-80
2024/01/07 08:08:20;;;;;;;;;;;;;;;3.43;100.00;96685.00;4349575;33;20042;-80
2024/01/07 08:10:47;;;;;;;;;;;;;;;3.64;100.00;96697.00;4349527;32;20451;-80
2024/01/07 08:13:13;;;;;;;;;;;;;;;4.02;98.36;96699.81;4349163;33;19990;-80
2024/01/07 08:15:40;;;;;;;;;;;;;;;3.53;99.58;96705.91;4349371;33;20361;-81
2024/01/07 08:18:07;;;;;;;;;;;;;;;4.27;95.57;96708.19;4349465;33;19998;-81
2024/01/07 08:20:34;;;;;;;;;;;;;;;4.17;95.04;96709.44;4349022;33;20436;-80
2024/01/07 08:23:01;;;;;;;;;;;;;;;3.45;99.60;96714.66;4349194;33;20039;-80
2024/01/07 08:25:27;;;;;;;;;;;;;;;3.41;100.00;96723.31;4348927;33;20041;-81
2024/01/07 08:27:54;;;;;;;;;;;;;;;4.14;96.32;96719.75;4350740;32;20311;-80
2024/01/07 08:30:21;;;;;;;;;;;;;;;3.48;99.32;96724.75;4351226;33;19974;-80
2024/01/07 08:32:48;;;;;;;;;;;;;;;3.33;99.59;96724.47;4351310;33;19986;-81
2024/01/07 08:35:15;;;;;;;;;;;;;;;3.44;99.96;96735.12;4350866;32;20039;-80
2024/01/07 08:37:45;;;;;;;;;;;;;;;3.17;100.00;96739.44;4351280;33;20007;-80
2024/01/07 08:40:13;;;;;;;;;;;;;;;3.54;100.00;96738.19;4351240;33;19975;-80
2024/01/07 08:42:41;;;;;;;;;;;;;;;3.52;99.69;96739.97;4350961;33;19987;-81
2024/01/07 08:45:07;;;;;;;;;;;;;;;3.51;98.97;96743.38;4351282;33;19978;-80
2024/01/07 08:47:35;;;;;;;;;;;;;;;4.14;94.17;96732.53;4351235;32;20037;-80
2024/01/07 08:50:08;;;;;;;;;;;;;;;3.41;98.27;96748.00;4349833;33;19985;-80
2024/01/07 08:52:35;;;;;;;;;;;;;;;3.60;97.79;96738.78;4351251;33;19985;-81
2024/01/07 08:55:02;;;;;;;;;;;;;;;3.74;97.20;96744.22;4350710;33;19971;-80
2024/01/07 08:57:29;;;;;;;;;;;;;;;3.36;97.30;96735.38;4351103;33;20295;-81
2024/01/07 08:59:56;;;;;;;;;;;;;;;3.25;99.81;96736.66;4351179;33;20262;-81
2024/01/07 09:02:23;;;;;;;;;;;;;;;3.57;98.49;96745.72;4350809;33;19975;-81
2024/01/07 09:04:50;;;;;;;;;;;;;;;3.85;95.90;96735.34;4351122;33;19975;-81
2024/01/07 09:07:16;;;;;;;;;;;;;;;3.52;96.83;96732.31;4350930;33;19994;-81
2024/01/07 09:09:43;;;;;;;;;;;;;;;3.11;99.30;96737.13;4350875;33;20355;-80
2024/01/07 09:12:10;;;;;;;;;;;;;;;3.16;100.00;96751.34;4351094;32;19983;-81
2024/01/07 09:14:37;;;;;;;;;;;;;;;3.42;98.95;96753.03;4351077;33;19975;-80
2024/01/07 09:17:04;;;;;;;;;;;;;;;3.69;96.86;96751.19;4350537;33;20334;-81
2024/01/07 09:19:31;;;;;;;;;;;;;;;3.69;95.06;96753.75;4350943;33;20106;-81
2024/01/07 09:21:57;;;;;;;;;;;;;;;3.27;98.41;96761.19;4349806;33;20493;-80
2024/01/07 09:24:24;;;;;;;;;;;;;;;3.12;98.04;96761.72;4350651;33;20002;-80
2024/01/07 09:26:51;;;;;;;;;;;;;;;3.25;98.40;96765.50;4350612;33;20001;-81
2024/01/07 09:29:17;;;;;;;;;;;;;;;2.85;98.49;96755.81;4350978;33;20427;-80
2024/01/07 09:31:44;;;;;;;;;;;;;;;2.32;100.00;96764.25;4350614;33;20254;-81
2024/01/07 09:34:11;;;;;;;;;;;;;;;3.29;97.92;96756.88;4350973;33;20034;-81
2024/01/07 09:36:38;;;;;;;;;;;;;;;2.52;100.00;96766.19;4350685;32;20025;-80
2024/01/07 09:39:06;;;;;;;;;;;;;;;2.93;99.57;96765.75;4350076;32;19997;-81
2024/01/07 09:41:33;;;;;;;;;;;;;;;3.39;96.76;96765.03;4350968;33;19998;-81
2024/01/07 09:44:00;;;;;;;;;;;;;;;3.49;95.72;96779.97;4349311;33;19979;-80
2024/01/07 09:46:27;;;;;;;;;;;;;;;3.53;94.85;96778.16;4349705;33;20027;-81
2024/01/07 09:48:53;;;;;;;;;;;;;;;3.35;96.54;96774.50;4349721;33;20315;-81
2024/01/07 09:51:21;;;;;;;;;;;;;;;2.95;98.14;96775.00;4350408;33;20046;-81
2024/01/07 09:53:48;;;;;;;;;;;;;;;2.84;99.36;96774.53;4350789;33;20050;-81
2024/01/07 09:56:25;;;;;;;;;;;;;;;3.62;94.62;96775.28;4349519;33;19990;-81
2024/01/07 09:58:52;;;;;;;;;;;;;;;3.93;91.59;96776.72;4350503;33;19979;-81
2024/01/07 10:01:18;;;;;;;;;;;;;;;3.49;93.76;96774.03;4350812;33;19971;-81
2024/01/07 10:03:45;;;;;;;;;;;;;;;3.78;91.71;96783.22;4350582;33;20569;-81
2024/01/07 10:06:13;;;;;;;;;;;;;;;4.13;89.17;96775.97;4350331;33;20025;-81
2024/01/07 10:08:40;;;;;;;;;;;;;;;3.98;89.70;96777.37;4350628;33;19989;-81
2024/01/07 10:11:09;;;;;;;;;;;;;;;3.51;92.87;96773.97;4349666;33;20306;-81
2024/01/07 10:13:36;;;;;;;;;;;;;;;3.35;92.06;96766.88;4350264;33;19989;-81
2024/01/07 10:16:03;;;;;;;;;;;;;;;3.62;90.19;96774.47;4350606;33;20419;-81
2024/01/07 10:18:31;;;;;;;;;;;;;;;3.76;90.09;96779.88;4350675;33;20115;-81
2024/01/07 10:21:07;;;;;;;;;;;;;;;3.51;91.94;96767.19;4350371;33;19967;-81
2024/01/07 10:23:33;;;;;;;;;;;;;;;2.60;96.32;96771.88;4350666;32;20042;-81
2024/01/07 10:26:02;;;;;;;;;;;;;;;2.85;95.32;96768.56;4350353;33;20003;-81
2024/01/07 10:28:41;;;;;;;;;;;;;;;3.34;92.82;96769.47;4350560;33;19971;-81
2024/01/07 10:31:07;;;;;;;;;;;;;;;3.16;93.39;96771.75;4350523;33;19967;-81
2024/01/07 10:33:34;;;;;;;;;;;;;;;3.47;90.82;96773.25;4350162;33;20033;-81
2024/01/07 10:36:05;;;;;;;;;;;;;;;2.76;93.56;96779.03;4349280;33;20071;-80
2024/01/07 10:38:35;;;;;;;;;;;;;;;3.31;91.67;96764.50;4350509;32;19974;-81
2024/01/07 10:41:02;;;;;;;;;;;;;;;3.19;92.61;96773.38;4350200;33;20038;-81
2024/01/07 10:43:29;;;;;;;;;;;;;;;3.54;90.14;96771.34;4350453;33;19978;-81
2024/01/07 10:45:55;;;;;;;;;;;;;;;3.76;89.90;96773.06;4350317;33;20326;-81
2024/01/07 10:48:22;;;;;;;;;;;;;;;3.60;90.11;96776.19;4349090;33;20343;-81
2024/01/07 10:50:50;;;;;;;;;;;;;;;3.31;91.54;96784.87;4349333;33;20326;-81
2024/01/07 10:53:21;;;;;;;;;;;;;;;2.87;93.14;96779.50;4349306;33;19983;-81
2024/01/07 10:56:00;;;;;;;;;;;;;;;2.31;95.50;96774.50;4350009;33;20376;-81
2024/01/07 10:58:27;;;;;;;;;;;;;;;2.80;94.51;96771.25;4350268;33;20030;-81
2024/01/07 11:00:54;;;;;;;;;;;;;;;3.12;92.42;96785.50;4350458;33;20375;-81
2024/01/07 11:03:24;;;;;;;;;;;;;;;3.38;90.97;96781.22;4350006;32;19991;-81
2024/01/07 11:05:54;;;;;;;;;;;;;;;3.16;92.52;96774.31;4350191;32;19991;-80
2024/01/07 11:08:41;;;;;;;;;;;;;;;3.53;90.32;96778.16;4349970;32;19975;-80
2024/01/07 11:11:13;;;;;;;;;;;;;;;2.75;93.49;96777.37;4349171;33;20083;-81
2024/01/07 11:13:40;;;;;;;;;;;;;;;3.86;87.65;96770.19;4349285;33;20042;-81
2024/01/07 11:16:11;;;;;;;;;;;;;;;3.26;89.95;96779.09;4349722;33;19979;-81
2024/01/07 11:18:39;;;;;;;;;;;;;;;3.61;87.52;96775.31;4350332;33;19982;-81
2024/01/07 11:21:06;;;;;;;;;;;;;;;2.93;90.26;96781.06;4350143;33;19986;-81
2024/01/07 11:23:36;;;;;;;;;;;;;;;3.20;88.47;96767.41;4349624;33;20029;-81
2024/01/07 11:26:03;;;;;;;;;;;;;;;2.81;91.33;96772.09;4349727;33;19979;-81
2024/01/07 11:28:46;;;;;;;;;;;;;;;3.60;88.83;96764.28;4350087;33;19989;-81
2024/01/07 11:31:13;;;;;;;;;;;;;;;3.48;88.48;96764.72;4349781;33;20030;-81
2024/01/07 11:33:41;;;;;;;;;;;;;;;3.34;88.06;96766.94;4350032;33;19970;-81
2024/01/07 11:36:08;;;;;;;;;;;;;;;2.95;91.71;96767.38;4349761;33;19979;-81
2024/01/07 11:38:37;;;;;;;;;;;;;;;3.02;90.22;96773.09;4348384;33;20002;-81
2024/01/07 11:41:05;;;;;;;;;;;;;;;2.51;92.54;96769.63;4350129;33;20021;-81
2024/01/07 11:43:34;;;;;;;;;;;;;;;3.19;90.39;96776.78;4349469;33;19991;-81
2024/01/07 11:46:01;;;;;;;;;;;;;;;2.88;90.04;96760.84;4349634;33;20018;-81
2024/01/07 11:48:27;;;;;;;;;;;;;;;2.64;92.35;96759.88;4348591;33;19967;-81
2024/01/07 11:50:54;;;;;;;;;;;;;;;3.00;90.43;96762.97;4349436;32;20026;-81
2024/01/07 11:53:22;;;;;;;;;;;;;;;2.69;90.84;96770.78;4349722;33;20001;-81
2024/01/07 11:55:48;;;;;;;;;;;;;;;2.88;89.95;96778.66;4349512;32;20445;-81
2024/01/07 11:58:15;;;;;;;;;;;;;;;2.89;89.94;96770.13;4348257;33;19987;-81
2024/01/07 12:00:42;;;;;;;;;;;;;;;3.00;88.10;96765.53;4349678;33;20046;-81
2024/01/07 12:03:09;;;;;;;;;;;;;;;2.89;88.26;96768.41;4351392;32;19975;-81
2024/01/07 12:05:36;;;;;;;;;;;;;;;2.76;89.21;96773.94;4351041;33;19975;-81
2024/01/07 12:08:03;;;;;;;;;;;;;;;2.43;90.90;96770.75;4351568;33;20010;-81
2024/01/07 12:10:29;;;;;;;;;;;;;;;2.35;91.62;96781.19;4351442;33;19977;-81
2024/01/07 12:12:56;;;;;;;;;;;;;;;1.73;95.83;96784.66;4349958;33;19999;-81
2024/01/07 12:15:23;;;;;;;;;;;;;;;2.31;92.94;96785.50;4350238;33;19983;-81
2024/01/07 12:18:00;;;;;;;;;;;;;;;2.35;91.24;96776.09;4351453;33;20251;-81
2024/01/07 12:20:28;;;;;;;;;;;;;;;2.26;91.01;96774.66;4351242;33;19962;-81
2024/01/07 12:22:58;;;;;;;;;;;;;;;2.50;91.27;96783.25;4351363;33;19987;-81
2024/01/07 12:25:25;;;;;;;;;;;;;;;2.20;91.30;96773.97;4350907;33;19987;-81
2024/01/07 12:27:52;;;;;;;;;;;;;;;2.18;90.10;96784.22;4351302;33;20037;-81
2024/01/07 12:30:20;;;;;;;;;;;;;;;2.62;88.95;96782.84;4351309;33;19987;-81
2024/01/07 12:32:47;;;;;;;;;;;;;;;2.49;88.05;96765.47;4351091;33;20338;-81
2024/01/07 12:35:13;;;;;;;;;;;;;;;1.95;91.83;96782.34;4351310;33;20360;-81
2024/01/07 12:37:40;;;;;;;;;;;;;;;1.90;92.21;96779.09;4351311;33;19975;-81
2024/01/07 12:40:09;;;;;;;;;;;;;;;2.24;91.27;96773.03;4349876;33;20025;-81
2024/01/07 12:42:44;;;;;;;;;;;;;;;2.55;89.70;96775.44;4351211;33;19983;-81
2024/01/07 12:45:13;;;;;;;;;;;;;;;1.99;92.04;96772.91;4350187;33;20021;-81
2024/01/07 12:47:42;;;;;;;;;;;;;;;1.89;93.21;96779.97;4350891;33;19970;-81
2024/01/07 12:50:11;;;;;;;;;;;;;;;2.16;91.74;96773.25;4350172;33;19982;-81
2024/01/07 12:52:39;;;;;;;;;;;;;;;2.11;93.34;96790.34;4351285;33;19987;-81
2024/01/07 12:55:06;;;;;;;;;;;;;;;1.76;95.00;96785.44;4350846;33;19982;-81